createdAt,value
2022-09-03T00:00:38.509Z,72.21
2022-09-03T00:01:38.520Z,72.31
2022-09-03T00:02:38.517Z,72.31
2022-09-03T00:03:38.462Z,72.31
2022-09-03T00:04:38.452Z,72.31
2022-09-03T00:05:38.501Z,72.11
2022-09-03T00:06:38.432Z,72.31
2022-09-03T00:07:38.422Z,72.31
2022-09-03T00:08:38.411Z,72.11
2022-09-03T00:09:38.402Z,72.11
2022-09-03T00:10:38.396Z,72.24
2022-09-03T00:11:38.400Z,72.24
2022-09-03T00:12:38.362Z,72.14
2022-09-03T00:13:38.352Z,72.24
2022-09-03T00:14:38.342Z,72.45
2022-09-03T00:15:38.382Z,72.65
2022-09-03T00:16:38.312Z,72.79
2022-09-03T00:17:38.333Z,72.99
2022-09-03T00:18:38.292Z,73.10
2022-09-03T00:19:38.295Z,73.19
2022-09-03T00:20:38.280Z,73.40
2022-09-03T00:21:38.283Z,73.60
2022-09-03T00:22:38.253Z,73.81
2022-09-03T00:23:38.272Z,73.91
2022-09-03T00:24:38.233Z,74.01
2022-09-03T00:25:38.238Z,74.01
2022-09-03T00:26:38.208Z,74.01
2022-09-03T00:27:38.201Z,74.01
2022-09-03T00:28:38.193Z,74.22
2022-09-03T00:29:38.199Z,74.32
2022-09-03T00:30:38.182Z,74.32
2022-09-03T00:31:38.188Z,74.56
2022-09-03T00:32:38.142Z,74.56
2022-09-03T00:33:38.130Z,74.76
2022-09-03T00:34:38.133Z,74.42
2022-09-03T00:35:38.121Z,74.22
2022-09-03T00:36:38.103Z,74.01
2022-09-03T00:37:38.520Z,73.91
2022-09-03T00:38:38.072Z,73.81
2022-09-03T00:39:38.130Z,74.11
2022-09-03T00:40:38.125Z,74.22
2022-09-03T00:41:38.047Z,74.35
2022-09-03T00:42:38.031Z,74.56
2022-09-03T00:43:38.013Z,74.56
2022-09-03T00:44:38.003Z,74.56
2022-09-03T00:45:37.994Z,74.56
2022-09-03T00:46:38.057Z,74.46
2022-09-03T00:47:37.973Z,74.56
2022-09-03T00:48:37.973Z,74.66
2022-09-03T00:49:37.954Z,74.66
2022-09-03T00:50:37.953Z,74.87
2022-09-03T00:51:37.953Z,75.21
2022-09-03T00:52:37.917Z,75.48
2022-09-03T00:53:37.903Z,75.58
2022-09-03T00:54:37.926Z,75.58
2022-09-03T00:55:37.873Z,75.48
2022-09-03T00:56:37.871Z,75.48
2022-09-03T00:57:37.884Z,75.37
2022-09-03T00:58:37.851Z,75.41
2022-09-03T00:59:37.833Z,75.27
2022-09-03T01:00:37.845Z,75.07
2022-09-03T01:01:37.907Z,74.97
2022-09-03T01:02:37.929Z,74.76
2022-09-03T01:03:37.806Z,74.76
2022-09-03T01:04:37.782Z,74.76
2022-09-03T01:05:37.793Z,74.87
2022-09-03T01:06:37.753Z,74.87
2022-09-03T01:07:37.752Z,74.87
2022-09-03T01:08:37.774Z,75.07
2022-09-03T01:09:37.724Z,75.31
2022-09-03T01:10:37.715Z,75.51
2022-09-03T01:11:37.702Z,75.71
2022-09-03T01:12:37.692Z,75.71
2022-09-03T01:13:37.674Z,75.82
2022-09-03T01:14:37.691Z,76.03
2022-09-03T01:15:37.680Z,76.16
2022-09-03T01:16:37.643Z,76.47
2022-09-03T01:17:37.642Z,76.47
2022-09-03T01:18:37.624Z,76.67
2022-09-03T01:19:37.619Z,76.78
2022-09-03T01:20:37.623Z,76.78
2022-09-03T01:21:37.584Z,76.88
2022-09-03T01:22:37.583Z,76.98
2022-09-03T01:23:37.563Z,76.98
2022-09-03T01:24:37.564Z,77.08
2022-09-03T01:25:37.563Z,77.15
2022-09-03T01:26:37.544Z,77.04
2022-09-03T01:27:37.615Z,76.94
2022-09-03T01:28:37.534Z,77.15
2022-09-03T01:29:39.777Z,77.25
2022-09-03T01:30:37.520Z,77.15
2022-09-03T01:31:37.502Z,77.15
2022-09-03T01:32:37.478Z,77.15
2022-09-03T01:33:37.451Z,77.15
2022-09-03T01:34:37.444Z,77.25
2022-09-03T01:35:37.434Z,77.25
2022-09-03T01:36:37.445Z,77.35
2022-09-03T01:37:37.404Z,77.39
2022-09-03T01:38:37.394Z,77.29
2022-09-03T01:39:37.412Z,77.39
2022-09-03T01:40:37.374Z,77.59
2022-09-03T01:41:37.368Z,77.70
2022-09-03T01:42:37.375Z,78.00
2022-09-03T01:43:39.193Z,78.24
2022-09-03T01:44:37.332Z,78.34
2022-09-03T01:45:37.322Z,78.24
2022-09-03T01:46:37.384Z,78.45
2022-09-03T01:47:37.315Z,78.55
2022-09-03T01:48:37.284Z,78.65
2022-09-03T01:49:37.275Z,78.65
2022-09-03T01:50:37.264Z,78.86
2022-09-03T01:51:37.245Z,78.96
2022-09-03T01:52:37.242Z,79.06
2022-09-03T01:53:37.234Z,78.86
2022-09-03T01:54:37.215Z,78.96
2022-09-03T01:55:37.205Z,78.96
2022-09-03T01:56:37.196Z,78.86
2022-09-03T01:57:37.500Z,78.86
2022-09-03T01:58:37.195Z,79.06
2022-09-03T01:59:37.162Z,79.10
2022-09-03T02:00:37.151Z,79.16
2022-09-03T02:01:37.199Z,79.06
2022-09-03T02:02:37.220Z,78.96
2022-09-03T02:03:40.851Z,78.96
2022-09-03T02:04:37.126Z,78.86
2022-09-03T02:05:37.093Z,78.65
2022-09-03T02:06:37.084Z,78.65
2022-09-03T02:07:37.072Z,78.65
2022-09-03T02:08:37.072Z,78.55
2022-09-03T02:09:37.092Z,78.65
2022-09-03T02:10:37.034Z,78.45
2022-09-03T02:11:37.034Z,78.34
2022-09-03T02:12:37.022Z,78.34
2022-09-03T02:13:37.003Z,78.34
2022-09-03T02:14:36.993Z,78.34
2022-09-03T02:15:37.098Z,78.34
2022-09-03T02:16:36.972Z,78.45
2022-09-03T02:17:36.954Z,78.55
2022-09-03T02:18:36.946Z,78.55
2022-09-03T02:19:36.932Z,78.65
2022-09-03T02:20:36.934Z,78.86
2022-09-03T02:21:36.929Z,78.96
2022-09-03T02:22:36.906Z,78.86
2022-09-03T02:23:36.886Z,79.16
2022-09-03T02:24:36.875Z,78.96
2022-09-03T02:25:36.868Z,78.96
2022-09-03T02:26:36.875Z,78.86
2022-09-03T02:27:36.845Z,78.96
2022-09-03T02:28:36.833Z,78.96
2022-09-03T02:29:36.815Z,78.96
2022-09-03T02:30:36.825Z,79.16
2022-09-03T02:31:36.796Z,79.06
2022-09-03T02:32:36.815Z,79.30
2022-09-03T02:33:36.776Z,79.20
2022-09-03T02:34:36.773Z,79.30
2022-09-03T02:35:36.754Z,79.41
2022-09-03T02:36:36.745Z,79.61
2022-09-03T02:37:36.726Z,79.50
2022-09-03T02:38:36.745Z,79.37
2022-09-03T02:39:39.401Z,79.16
2022-09-03T02:40:36.697Z,79.20
2022-09-03T02:41:36.685Z,79.41
2022-09-03T02:42:36.685Z,79.41
2022-09-03T02:43:36.664Z,79.61
2022-09-03T02:44:36.675Z,79.71
2022-09-03T02:45:36.638Z,79.71
2022-09-03T02:46:36.635Z,79.71
2022-09-03T02:47:36.618Z,79.71
2022-09-03T02:48:36.614Z,79.82
2022-09-03T02:49:36.594Z,79.82
2022-09-03T02:50:36.605Z,79.91
2022-09-03T02:51:36.578Z,80.02
2022-09-03T02:52:36.575Z,80.12
2022-09-03T02:53:36.553Z,80.02
2022-09-03T02:54:36.546Z,79.91
2022-09-03T02:55:36.525Z,79.71
2022-09-03T02:56:36.546Z,79.71
2022-09-03T02:57:36.504Z,79.82
2022-09-03T02:58:36.510Z,80.02
2022-09-03T02:59:36.475Z,80.02
2022-09-03T03:00:36.474Z,80.12
2022-09-03T03:01:36.492Z,80.22
2022-09-03T03:02:36.478Z,80.46
2022-09-03T03:03:36.435Z,80.57
2022-09-03T03:04:36.426Z,80.53
2022-09-03T03:05:36.416Z,80.53
2022-09-03T03:06:36.405Z,80.53
2022-09-03T03:07:36.414Z,80.43
2022-09-03T03:08:36.386Z,80.33
2022-09-03T03:09:36.366Z,80.43
2022-09-03T03:10:36.366Z,80.43
2022-09-03T03:11:36.345Z,80.43
2022-09-03T03:12:36.393Z,80.33
2022-09-03T03:13:36.345Z,80.22
2022-09-03T03:14:36.315Z,80.22
2022-09-03T03:15:36.296Z,80.12
2022-09-03T03:16:36.338Z,80.02
2022-09-03T03:17:36.275Z,79.82
2022-09-03T03:18:36.293Z,79.82
2022-09-03T03:19:36.294Z,79.82
2022-09-03T03:20:36.245Z,80.02
2022-09-03T03:21:36.244Z,80.02
2022-09-03T03:22:36.225Z,80.02
2022-09-03T03:23:36.218Z,80.33
2022-09-03T03:24:36.260Z,80.43
2022-09-03T03:25:36.186Z,80.43
2022-09-03T03:26:36.175Z,80.43
2022-09-03T03:27:36.165Z,80.43
2022-09-03T03:28:36.155Z,80.67
2022-09-03T03:29:36.135Z,81.08
2022-09-03T03:30:36.241Z,81.18
2022-09-03T03:31:36.116Z,81.49
2022-09-03T03:32:36.115Z,81.59
2022-09-03T03:33:36.114Z,81.56
2022-09-03T03:34:36.085Z,81.35
2022-09-03T03:35:36.075Z,81.35
2022-09-03T03:36:36.098Z,81.35
2022-09-03T03:37:36.045Z,81.35
2022-09-03T03:38:36.046Z,80.90
2022-09-03T03:39:36.092Z,80.69
2022-09-03T03:40:36.015Z,80.49
2022-09-03T03:41:36.007Z,80.49
2022-09-03T03:42:36.015Z,80.49
2022-09-03T03:43:35.996Z,80.39
2022-09-03T03:44:35.974Z,80.19
2022-09-03T03:45:36.007Z,79.98
2022-09-03T03:46:35.957Z,79.98
2022-09-03T03:47:35.955Z,79.98
2022-09-03T03:48:35.934Z,79.88
2022-09-03T03:49:35.916Z,79.88
2022-09-03T03:50:35.906Z,79.98
2022-09-03T03:51:35.894Z,79.53
2022-09-03T03:52:35.885Z,79.33
2022-09-03T03:53:35.893Z,79.23
2022-09-03T03:54:35.866Z,79.13
2022-09-03T03:55:35.846Z,79.02
2022-09-03T03:56:35.835Z,79.02
2022-09-03T03:57:35.826Z,78.82
2022-09-03T03:58:35.815Z,78.72
2022-09-03T03:59:35.825Z,78.61
2022-09-03T04:00:35.797Z,78.61
2022-09-03T04:01:35.827Z,78.72
2022-09-03T04:02:39.079Z,78.72
2022-09-03T04:03:35.757Z,78.68
2022-09-03T04:04:35.755Z,78.68
2022-09-03T04:05:35.757Z,78.68
2022-09-03T04:06:35.727Z,78.68
2022-09-03T04:07:35.716Z,78.68
2022-09-03T04:08:35.705Z,78.68
2022-09-03T04:09:35.688Z,79.29
2022-09-03T04:10:35.704Z,78.78
2022-09-03T04:11:35.665Z,78.78
2022-09-03T04:12:35.656Z,78.78
2022-09-03T04:13:35.646Z,78.68
2022-09-03T04:14:35.635Z,78.58
2022-09-03T04:15:35.647Z,78.48
2022-09-03T04:16:35.732Z,78.44
2022-09-03T04:17:35.602Z,78.34
2022-09-03T04:18:35.595Z,78.34
2022-09-03T04:19:35.577Z,78.34
2022-09-03T04:20:35.568Z,78.44
2022-09-03T04:21:35.557Z,78.34
2022-09-03T04:22:35.575Z,78.54
2022-09-03T04:23:35.533Z,78.44
2022-09-03T04:24:35.525Z,78.03
2022-09-03T04:25:35.506Z,78.00
2022-09-03T04:26:35.498Z,77.89
2022-09-03T04:27:35.487Z,77.79
2022-09-03T04:28:35.505Z,77.59
2022-09-03T04:29:35.467Z,77.48
2022-09-03T04:30:35.474Z,77.48
2022-09-03T04:31:35.446Z,77.59
2022-09-03T04:32:35.434Z,77.48
2022-09-03T04:33:35.426Z,77.48
2022-09-03T04:34:35.436Z,77.38
2022-09-03T04:35:35.963Z,77.28
2022-09-03T04:36:35.386Z,77.18
2022-09-03T04:37:35.374Z,77.38
2022-09-03T04:38:35.366Z,77.34
2022-09-03T04:39:35.389Z,77.25
2022-09-03T04:40:35.366Z,77.34
2022-09-03T04:41:35.328Z,77.14
2022-09-03T04:42:35.326Z,77.14
2022-09-03T04:43:35.309Z,77.14
2022-09-03T04:44:35.297Z,77.14
2022-09-03T04:45:35.329Z,77.14
2022-09-03T04:46:35.297Z,77.04
2022-09-03T04:47:35.259Z,77.14
2022-09-03T04:48:35.257Z,77.25
2022-09-03T04:49:35.245Z,77.34
2022-09-03T04:50:35.227Z,77.34
2022-09-03T04:51:35.217Z,77.34
2022-09-03T04:52:35.227Z,77.34
2022-09-03T04:53:35.199Z,77.25
2022-09-03T04:54:35.177Z,77.25
2022-09-03T04:55:35.187Z,77.14
2022-09-03T04:56:35.157Z,77.04
2022-09-03T04:57:35.147Z,76.93
2022-09-03T04:58:35.156Z,76.93
2022-09-03T04:59:35.129Z,77.04
2022-09-03T05:00:35.120Z,76.90
2022-09-03T05:01:35.186Z,76.90
2022-09-03T05:02:35.126Z,76.90
2022-09-03T05:03:35.107Z,77.00
2022-09-03T05:04:35.077Z,76.80
2022-09-03T05:05:35.066Z,76.90
2022-09-03T05:06:35.049Z,76.80
2022-09-03T05:07:35.046Z,76.90
2022-09-03T05:08:35.029Z,76.80
2022-09-03T05:09:35.037Z,76.80
2022-09-03T05:10:35.004Z,76.80
2022-09-03T05:11:34.996Z,76.50
2022-09-03T05:12:34.978Z,76.39
2022-09-03T05:13:34.977Z,76.09
2022-09-03T05:14:34.957Z,76.19
2022-09-03T05:15:34.979Z,76.05
2022-09-03T05:16:35.043Z,75.74
2022-09-03T05:17:37.706Z,75.85
2022-09-03T05:18:34.916Z,75.85
2022-09-03T05:19:34.908Z,75.64
2022-09-03T05:20:34.887Z,75.74
2022-09-03T05:21:34.928Z,75.71
2022-09-03T05:22:34.877Z,75.40
2022-09-03T05:23:37.672Z,74.99
2022-09-03T05:24:34.858Z,74.90
2022-09-03T05:25:34.837Z,74.65
2022-09-03T05:26:34.819Z,74.35
2022-09-03T05:27:34.831Z,74.25
2022-09-03T05:28:34.807Z,74.15
2022-09-03T05:29:34.791Z,74.04
2022-09-03T05:30:34.779Z,73.91
2022-09-03T05:31:34.823Z,73.60
2022-09-03T05:32:34.788Z,73.40
2022-09-03T05:33:34.779Z,73.16
2022-09-03T05:34:34.729Z,72.96
2022-09-03T05:35:34.731Z,72.75
2022-09-03T05:36:34.740Z,72.55
2022-09-03T05:37:34.708Z,72.52
2022-09-03T05:38:34.708Z,72.31
2022-09-03T05:39:34.716Z,72.21
2022-09-03T05:40:34.668Z,72.21
2022-09-03T05:41:34.659Z,72.21
2022-09-03T05:42:34.641Z,72.11
2022-09-03T05:43:34.642Z,72.11
2022-09-03T05:44:34.640Z,72.21
2022-09-03T05:45:34.727Z,72.21
2022-09-03T05:46:34.598Z,72.28
2022-09-03T05:47:34.589Z,72.17
2022-09-03T05:48:34.571Z,71.97
2022-09-03T05:49:34.569Z,72.08
2022-09-03T05:50:34.579Z,71.97
2022-09-03T05:51:34.547Z,71.87
2022-09-03T05:52:34.529Z,71.87
2022-09-03T05:53:34.529Z,71.97
2022-09-03T05:54:34.509Z,72.08
2022-09-03T05:55:34.520Z,72.08
2022-09-03T05:56:34.490Z,71.97
2022-09-03T05:57:34.481Z,71.84
2022-09-03T05:58:34.459Z,71.84
2022-09-03T05:59:34.469Z,71.73
2022-09-03T06:00:34.446Z,71.53
2022-09-03T06:01:34.451Z,71.73
2022-09-03T06:02:34.553Z,71.84
2022-09-03T06:03:34.511Z,71.94
2022-09-03T06:04:34.390Z,71.94
2022-09-03T06:05:34.389Z,72.14
2022-09-03T06:06:34.371Z,72.11
2022-09-03T06:07:34.393Z,71.80
2022-09-03T06:08:34.355Z,71.20
2022-09-03T06:09:34.349Z,71.20
2022-09-03T06:10:40.688Z,70.99
2022-09-03T06:11:35.329Z,71.09
2022-09-03T06:12:34.300Z,71.20
2022-09-03T06:13:34.334Z,71.40
2022-09-03T06:14:34.282Z,71.50
2022-09-03T06:15:34.281Z,71.60
2022-09-03T06:16:34.301Z,71.40
2022-09-03T06:17:34.270Z,71.40
2022-09-03T06:18:34.243Z,71.30
2022-09-03T06:19:34.259Z,71.09
2022-09-03T06:20:37.117Z,71.09
2022-09-03T06:21:34.212Z,71.30
2022-09-03T06:22:34.194Z,71.16
2022-09-03T06:23:34.182Z,70.96
2022-09-03T06:24:34.171Z,70.96
2022-09-03T06:25:34.193Z,70.96
2022-09-03T06:26:34.151Z,70.35
2022-09-03T06:27:34.141Z,70.45
2022-09-03T06:28:34.134Z,70.45
2022-09-03T06:29:34.120Z,70.42
2022-09-03T06:30:34.102Z,70.32
2022-09-03T06:31:34.173Z,70.21
2022-09-03T06:32:34.081Z,70.11
2022-09-03T06:33:34.091Z,69.81
2022-09-03T06:34:34.062Z,69.60
2022-09-03T06:35:35.669Z,69.17
2022-09-03T06:36:35.063Z,68.87
2022-09-03T06:37:34.030Z,68.76
2022-09-03T06:38:34.012Z,68.66
2022-09-03T06:39:34.088Z,68.46
2022-09-03T06:40:33.994Z,68.46
2022-09-03T06:41:33.982Z,68.23
2022-09-03T06:42:33.992Z,68.02
2022-09-03T06:43:33.962Z,67.92
2022-09-03T06:44:40.987Z,68.32
2022-09-03T06:45:33.963Z,68.32
2022-09-03T06:46:33.921Z,68.12
2022-09-03T06:47:33.917Z,67.92
2022-09-03T06:48:33.928Z,67.68
2022-09-03T06:49:33.898Z,67.58
2022-09-03T06:50:34.762Z,67.58
2022-09-03T06:51:33.869Z,67.89
2022-09-03T06:52:33.859Z,67.79
2022-09-03T06:53:33.848Z,67.68
2022-09-03T06:54:33.849Z,67.58
2022-09-03T06:55:33.818Z,67.45
2022-09-03T06:56:38.879Z,67.35
2022-09-03T06:57:34.799Z,67.35
2022-09-03T06:58:33.787Z,67.35
2022-09-03T06:59:33.808Z,67.45
2022-09-03T07:00:33.795Z,67.35
2022-09-03T07:01:33.844Z,67.11
2022-09-03T07:02:33.747Z,66.91
2022-09-03T07:03:33.730Z,67.32
2022-09-03T07:04:33.719Z,67.79
2022-09-03T07:05:33.730Z,68.30
2022-09-03T07:06:33.690Z,68.90
2022-09-03T07:07:33.688Z,69.27
2022-09-03T07:08:33.670Z,69.48
2022-09-03T07:09:33.660Z,69.27
2022-09-03T07:10:33.659Z,68.23
2022-09-03T07:11:33.659Z,67.43
2022-09-03T07:12:33.628Z,67.09
2022-09-03T07:13:33.619Z,66.69
2022-09-03T07:14:33.611Z,66.08
2022-09-03T07:15:33.599Z,65.04
2022-09-03T07:16:33.661Z,64.64
2022-09-03T07:17:33.591Z,64.40
2022-09-03T07:18:33.561Z,64.00
2022-09-03T07:19:33.550Z,63.49
2022-09-03T07:20:33.561Z,63.70
2022-09-03T07:21:33.535Z,63.67
2022-09-03T07:22:33.526Z,62.96
2022-09-03T07:23:33.531Z,62.35
2022-09-03T07:24:33.501Z,62.22
2022-09-03T07:25:33.491Z,62.22
2022-09-03T07:26:33.472Z,62.32
2022-09-03T07:27:33.462Z,61.69
2022-09-03T07:28:33.451Z,61.69
2022-09-03T07:29:33.463Z,61.49
2022-09-03T07:30:33.434Z,61.39
2022-09-03T07:31:33.470Z,61.49
2022-09-03T07:32:33.402Z,61.59
2022-09-03T07:33:33.985Z,61.69
2022-09-03T07:34:33.403Z,61.79
2022-09-03T07:35:33.382Z,61.29
2022-09-03T07:36:35.359Z,61.25
2022-09-03T07:37:33.352Z,61.25
2022-09-03T07:38:33.343Z,61.86
2022-09-03T07:39:33.382Z,61.66
2022-09-03T07:40:33.365Z,61.46
2022-09-03T07:41:33.325Z,61.25
2022-09-03T07:42:33.302Z,61.36
2022-09-03T07:43:33.293Z,61.56
2022-09-03T07:44:33.276Z,61.86
2022-09-03T07:45:33.275Z,62.46
2022-09-03T07:46:33.311Z,61.66
2022-09-03T07:47:33.244Z,61.66
2022-09-03T07:48:36.717Z,62.13
2022-09-03T07:49:33.225Z,61.93
2022-09-03T07:50:33.214Z,61.13
2022-09-03T07:51:33.203Z,61.13
2022-09-03T07:52:33.203Z,62.54
2022-09-03T07:53:33.177Z,62.54
2022-09-03T07:54:33.165Z,62.34
2022-09-03T07:55:33.157Z,62.44
2022-09-03T07:56:33.145Z,60.42
2022-09-03T07:57:33.164Z,60.22
2022-09-03T07:58:33.116Z,59.75
2022-09-03T07:59:33.106Z,59.64
2022-09-03T08:00:33.140Z,59.75
2022-09-03T08:01:33.089Z,59.44
2022-09-03T08:02:33.097Z,59.55
2022-09-03T08:03:33.136Z,59.55
2022-09-03T08:04:33.048Z,59.75
2022-09-03T08:05:33.036Z,59.95
2022-09-03T08:06:33.027Z,59.95
2022-09-03T08:07:33.036Z,59.84
2022-09-03T08:08:35.499Z,60.05
2022-09-03T08:09:33.005Z,60.25
2022-09-03T08:10:32.977Z,60.45
2022-09-03T08:11:32.976Z,60.35
2022-09-03T08:12:32.957Z,60.65
2022-09-03T08:13:32.947Z,60.63
2022-09-03T08:14:32.959Z,60.42
2022-09-03T08:15:32.926Z,60.22
2022-09-03T08:16:32.938Z,59.72
2022-09-03T08:17:32.919Z,59.48
2022-09-03T08:18:32.886Z,59.48
2022-09-03T08:19:32.878Z,59.19
2022-09-03T08:20:32.880Z,59.39
2022-09-03T08:21:32.857Z,59.08
2022-09-03T08:22:32.848Z,59.08
2022-09-03T08:23:32.839Z,59.08
2022-09-03T08:24:32.830Z,58.88
2022-09-03T08:25:32.812Z,59.19
2022-09-03T08:26:32.830Z,59.28
2022-09-03T08:27:32.789Z,59.19
2022-09-03T08:28:32.769Z,59.19
2022-09-03T08:29:32.771Z,59.39
2022-09-03T08:30:32.761Z,59.39
2022-09-03T08:31:32.813Z,59.82
2022-09-03T08:32:32.749Z,60.12
2022-09-03T08:33:32.720Z,60.42
2022-09-03T08:34:32.710Z,60.83
2022-09-03T08:35:32.703Z,61.13
2022-09-03T08:36:32.690Z,61.33
2022-09-03T08:37:32.700Z,61.23
2022-09-03T08:38:32.660Z,61.53
2022-09-03T08:39:32.752Z,61.33
2022-09-03T08:40:32.641Z,61.43
2022-09-03T08:41:32.621Z,60.83
2022-09-03T08:42:32.621Z,61.03
2022-09-03T08:43:32.631Z,61.13
2022-09-03T08:44:32.591Z,61.13
2022-09-03T08:45:32.581Z,61.03
2022-09-03T08:46:32.637Z,61.13
2022-09-03T08:47:32.561Z,61.03
2022-09-03T08:48:32.563Z,61.03
2022-09-03T08:49:32.563Z,61.03
2022-09-03T08:50:32.522Z,61.23
2022-09-03T08:51:32.523Z,61.13
2022-09-03T08:52:32.590Z,61.63
2022-09-03T08:53:32.492Z,61.63
2022-09-03T08:54:32.476Z,61.63
2022-09-03T08:55:32.495Z,62.04
2022-09-03T08:56:32.484Z,62.44
2022-09-03T08:57:32.510Z,62.54
2022-09-03T08:58:32.433Z,63.04
2022-09-03T08:59:33.090Z,63.62
2022-09-03T09:00:32.428Z,64.22
2022-09-03T09:01:32.462Z,64.22
2022-09-03T09:02:32.507Z,66.83
2022-09-03T09:03:32.403Z,66.94
2022-09-03T09:04:32.385Z,67.84
2022-09-03T09:05:32.354Z,66.83
2022-09-03T09:06:32.382Z,65.62
2022-09-03T09:07:32.342Z,67.03
2022-09-03T09:08:32.325Z,65.96
2022-09-03T09:09:32.334Z,68.28
2022-09-03T09:10:32.305Z,68.48
2022-09-03T09:11:32.314Z,66.13
2022-09-03T09:12:38.487Z,66.77
2022-09-03T09:13:33.273Z,66.43
2022-09-03T09:14:32.246Z,67.44
2022-09-03T09:15:32.235Z,66.30
2022-09-03T09:16:32.225Z,65.39
2022-09-03T09:17:32.216Z,68.18
2022-09-03T09:18:32.225Z,66.03
2022-09-03T09:19:32.197Z,64.73
2022-09-03T09:20:32.185Z,64.23
2022-09-03T09:21:32.167Z,63.49
2022-09-03T09:22:32.165Z,63.56
2022-09-03T09:23:32.158Z,64.57
2022-09-03T09:24:32.197Z,65.04
2022-09-03T09:25:32.131Z,63.13
2022-09-03T09:26:32.118Z,63.31
2022-09-03T09:27:32.106Z,63.31
2022-09-03T09:28:32.098Z,62.47
2022-09-03T09:29:32.103Z,62.07
2022-09-03T09:30:32.098Z,61.17
2022-09-03T09:31:32.093Z,60.47
2022-09-03T09:32:32.055Z,60.16
2022-09-03T09:33:32.038Z,61.94
2022-09-03T09:34:32.030Z,60.71
2022-09-03T09:35:32.009Z,59.08
2022-09-03T09:36:32.050Z,59.45
2022-09-03T09:37:31.989Z,57.92
2022-09-03T09:38:31.978Z,57.22
2022-09-03T09:39:32.200Z,57.19
2022-09-03T09:40:31.960Z,56.89
2022-09-03T09:41:31.939Z,56.52
2022-09-03T09:42:31.961Z,56.32
2022-09-03T09:43:31.921Z,56.82
2022-09-03T09:44:31.920Z,57.05
2022-09-03T09:45:31.903Z,56.72
2022-09-03T09:46:31.917Z,56.42
2022-09-03T09:47:31.871Z,55.62
2022-09-03T09:48:31.890Z,55.89
2022-09-03T09:49:31.853Z,55.09
2022-09-03T09:50:31.849Z,55.69
2022-09-03T09:51:31.831Z,55.12
2022-09-03T09:52:31.836Z,55.92
2022-09-03T09:53:31.834Z,56.22
2022-09-03T09:54:31.805Z,56.22
2022-09-03T09:55:31.801Z,56.72
2022-09-03T09:56:31.780Z,56.65
2022-09-03T09:57:31.762Z,57.37
2022-09-03T09:58:31.761Z,57.37
2022-09-03T09:59:31.774Z,58.00
2022-09-03T10:00:31.733Z,59.06
2022-09-03T10:01:31.822Z,59.89
2022-09-03T10:02:31.801Z,60.49
2022-09-03T10:03:31.705Z,60.49
2022-09-03T10:04:33.462Z,59.77
2022-09-03T10:05:31.693Z,59.74
2022-09-03T10:06:31.673Z,59.20
2022-09-03T10:07:31.654Z,58.87
2022-09-03T10:08:31.644Z,58.18
2022-09-03T10:09:31.908Z,57.57
2022-09-03T10:10:31.646Z,57.90
2022-09-03T10:11:31.615Z,58.40
2022-09-03T10:12:31.603Z,58.83
2022-09-03T10:13:31.585Z,59.23
2022-09-03T10:14:31.576Z,59.44
2022-09-03T10:15:31.621Z,59.94
2022-09-03T10:16:31.575Z,59.33
2022-09-03T10:17:36.885Z,59.31
2022-09-03T10:18:32.535Z,58.91
2022-09-03T10:19:31.528Z,58.61
2022-09-03T10:20:31.527Z,58.48
2022-09-03T10:21:31.516Z,58.48
2022-09-03T10:22:31.644Z,58.07
2022-09-03T10:23:31.475Z,57.78
2022-09-03T10:24:31.466Z,58.40
2022-09-03T10:25:31.448Z,58.61
2022-09-03T10:26:32.221Z,59.03
2022-09-03T10:27:32.084Z,59.53
2022-09-03T10:28:31.438Z,59.33
2022-09-03T10:29:31.408Z,59.64
2022-09-03T10:30:31.407Z,59.11
2022-09-03T10:31:31.476Z,58.81
2022-09-03T10:32:34.011Z,58.61
2022-09-03T10:33:32.387Z,59.00
2022-09-03T10:34:31.349Z,58.50
2022-09-03T10:35:31.344Z,58.61
2022-09-03T10:36:31.338Z,59.13
2022-09-03T10:37:31.319Z,59.03
2022-09-03T10:38:31.309Z,59.44
2022-09-03T10:39:31.364Z,59.53
2022-09-03T10:40:32.290Z,59.94
2022-09-03T10:41:31.277Z,60.03
2022-09-03T10:42:31.271Z,59.61
2022-09-03T10:43:31.261Z,59.31
2022-09-03T10:44:31.261Z,59.20
2022-09-03T10:45:31.250Z,59.61
2022-09-03T10:46:32.260Z,59.70
2022-09-03T10:47:31.210Z,59.81
2022-09-03T10:48:31.210Z,60.24
2022-09-03T10:49:31.189Z,60.33
2022-09-03T10:50:31.181Z,60.57
2022-09-03T10:51:31.181Z,60.77
2022-09-03T10:52:31.161Z,60.66
2022-09-03T10:53:31.143Z,60.53
2022-09-03T10:54:31.142Z,60.33
2022-09-03T10:55:31.122Z,59.91
2022-09-03T10:56:31.133Z,59.08
2022-09-03T10:57:31.095Z,58.65
2022-09-03T10:58:31.092Z,58.02
2022-09-03T10:59:31.084Z,57.39
2022-09-03T11:00:31.071Z,57.26
2022-09-03T11:01:31.121Z,56.24
2022-09-03T11:02:31.121Z,55.11
2022-09-03T11:03:31.037Z,55.39
2022-09-03T11:04:31.033Z,54.59
2022-09-03T11:05:32.004Z,54.59
2022-09-03T11:06:31.002Z,54.32
2022-09-03T11:07:31.001Z,55.32
2022-09-03T11:08:31.003Z,55.41
2022-09-03T11:09:30.968Z,54.59
2022-09-03T11:10:31.426Z,53.86
2022-09-03T11:11:30.966Z,53.84
2022-09-03T11:12:30.933Z,53.74
2022-09-03T11:13:30.915Z,53.64
2022-09-03T11:14:30.935Z,53.86
2022-09-03T11:15:30.929Z,54.49
2022-09-03T11:16:30.885Z,54.79
2022-09-03T11:17:32.105Z,54.99
2022-09-03T11:18:30.866Z,54.69
2022-09-03T11:19:30.854Z,55.11
2022-09-03T11:20:30.866Z,55.39
2022-09-03T11:21:30.826Z,54.99
2022-09-03T11:22:30.829Z,54.39
2022-09-03T11:23:30.814Z,55.02
2022-09-03T11:24:30.802Z,55.54
2022-09-03T11:25:30.828Z,56.14
2022-09-03T11:26:30.778Z,55.21
2022-09-03T11:27:31.251Z,54.89
2022-09-03T11:28:30.767Z,54.49
2022-09-03T11:29:30.748Z,54.59
2022-09-03T11:30:30.739Z,55.71
2022-09-03T11:31:30.749Z,55.91
2022-09-03T11:32:30.713Z,55.32
2022-09-03T11:33:30.707Z,55.21
2022-09-03T11:34:32.199Z,55.64
2022-09-03T11:35:30.690Z,56.14
2022-09-03T11:36:30.680Z,56.07
2022-09-03T11:37:30.679Z,56.37
2022-09-03T11:38:30.679Z,57.19
2022-09-03T11:39:30.686Z,57.39
2022-09-03T11:40:30.629Z,56.96
2022-09-03T11:41:30.620Z,57.07
2022-09-03T11:42:30.663Z,56.96
2022-09-03T11:43:30.622Z,57.04
2022-09-03T11:44:30.581Z,56.64
2022-09-03T11:45:30.562Z,56.34
2022-09-03T11:46:30.697Z,56.46
2022-09-03T11:47:30.545Z,57.09
2022-09-03T11:48:30.542Z,57.59
2022-09-03T11:49:30.545Z,57.79
2022-09-03T11:50:30.602Z,57.29
2022-09-03T11:51:30.504Z,57.46
2022-09-03T11:52:30.492Z,56.87
2022-09-03T11:53:30.519Z,56.96
2022-09-03T11:54:30.521Z,57.07
2022-09-03T11:55:31.837Z,57.26
2022-09-03T11:56:31.464Z,57.07
2022-09-03T11:57:30.433Z,57.34
2022-09-03T11:58:30.424Z,56.54
2022-09-03T11:59:30.425Z,56.84
2022-09-03T12:00:30.429Z,56.11
2022-09-03T12:01:30.392Z,56.24
2022-09-03T12:02:30.463Z,56.24
2022-09-03T12:03:30.369Z,56.64
2022-09-03T12:04:30.394Z,56.87
2022-09-03T12:05:30.344Z,56.94
2022-09-03T12:06:30.355Z,56.94
2022-09-03T12:07:30.317Z,56.91
2022-09-03T12:08:30.315Z,55.69
2022-09-03T12:09:30.296Z,56.18
2022-09-03T12:10:30.296Z,55.66
2022-09-03T12:11:30.303Z,55.04
2022-09-03T12:12:30.266Z,54.83
2022-09-03T12:13:30.247Z,54.41
2022-09-03T12:14:30.246Z,54.01
2022-09-03T12:15:30.228Z,54.01
2022-09-03T12:16:30.260Z,53.71
2022-09-03T12:17:30.227Z,53.81
2022-09-03T12:18:30.206Z,54.08
2022-09-03T12:19:30.187Z,53.76
2022-09-03T12:20:30.179Z,53.27
2022-09-03T12:21:30.168Z,52.97
2022-09-03T12:22:30.178Z,52.97
2022-09-03T12:23:30.147Z,53.49
2022-09-03T12:24:31.822Z,54.06
2022-09-03T12:25:30.129Z,53.46
2022-09-03T12:26:30.109Z,53.16
2022-09-03T12:27:30.100Z,53.69
2022-09-03T12:28:30.119Z,54.01
2022-09-03T12:29:31.101Z,54.31
2022-09-03T12:30:30.104Z,54.61
2022-09-03T12:31:30.066Z,54.71
2022-09-03T12:32:30.050Z,55.24
2022-09-03T12:33:30.039Z,55.73
2022-09-03T12:34:30.051Z,56.16
2022-09-03T12:35:58.938Z,56.26
2022-09-03T12:36:31.011Z,56.59
2022-09-03T12:38:30.981Z,57.48
2022-09-03T12:40:31.065Z,56.56
2022-09-03T12:41:30.087Z,56.66
2022-09-03T12:42:29.942Z,56.43
2022-09-03T12:43:38.387Z,56.33
2022-09-03T12:46:10.027Z,56.73
2022-09-03T12:46:40.892Z,55.80
2022-09-03T12:47:39.905Z,55.71
2022-09-03T12:48:43.596Z,56.01
2022-09-03T12:49:39.781Z,55.48
2022-09-03T12:50:42.557Z,54.98
2022-09-03T12:51:50.963Z,54.56
2022-09-03T12:52:40.741Z,54.43
2022-09-03T12:53:39.731Z,54.31
2022-09-03T12:54:39.714Z,53.81
2022-09-03T12:55:39.712Z,53.53